Ana Sayfa
METAR-TAF:

METAR-TAF

Havaalanları :

Isparta Süleyman Demirel Havalimanı

Isparta, Türkiye

Enlem: 37-51N, Boylam: 030-22E, yükseklik: 864 m

Güncel hava durumu gözlemi

Rapor saat 04:20 UTC de 35 dakika önce yapıldı.
Rüzgar değişken yönden 2 kt
Sıcaklık 16°C
Nem 42%
Basınç 1012 hPa
Görüş mesafesi 10 km veya daha fazla
1500 m altında bulut yok ve kümülonimbus yok

METAR: LTFC 150420Z VRB02KT CAVOK 16/03 Q1012

Saat: 07:55 (04:55 UTC)

Tahmin

Rapor saat 22:40 UTC de 6 saat ve 15 dakika önce yapıldı.
Ayın 15'si saat 00 UTC'den ayın 15'si saat 24 UTC'ye kadar geçerli Tahmin
Rüzgar değişken yönden 2 kt
Görüş mesafesi 10 km veya daha fazla
1500 m altında bulut yok ve kümülonimbus yok

TAF: LTFC 142240Z 1500/1524 VRB02KT CAVOK

4.000'den fazla havaalanı için hava durumu gözlemleri ve tahminleri (METAR ve TAF raporları).

Kullanılabilir istasyonlar harita üzerinde sarı ve kırmızı noktalarla gösterilir.

İstasyonun adını görmek için fareyi noktanın üzerinde gezdirin.

Sonrasında hava gözlem ve tahminlerini görmek için tıklayın.

Haritayı değiştirmek için: yaklaştırmak için siyah artı işaretli yeşil düğmeye ve uzaklaştırmak için de eksi işaretli düğmeye hızla tıklayın; bitişik haritalar için yeşil okları kullanın.


METAR-TAF: